createdAt,value
2023-05-20T00:00:20.298Z,4.63
2023-05-20T00:04:22.465Z,4.47
2023-05-20T00:08:24.488Z,4.07
2023-05-20T00:12:26.629Z,4.25
2023-05-20T00:16:28.719Z,6.05
2023-05-20T00:20:30.988Z,3.83
2023-05-20T00:24:33.032Z,3.75
2023-05-20T00:28:35.183Z,4.20
2023-05-20T00:32:37.269Z,4.30
2023-05-20T00:36:39.269Z,4.28
2023-05-20T00:40:41.341Z,4.00
2023-05-20T00:44:43.707Z,5.63
2023-05-20T00:48:45.799Z,4.05
2023-05-20T00:52:48.338Z,6.22
2023-05-20T00:56:51.302Z,4.78
2023-05-20T01:00:53.856Z,3.75
2023-05-20T01:04:56.932Z,4.80
2023-05-20T01:08:59.165Z,4.13
2023-05-20T01:13:05.666Z,4.00
2023-05-20T01:17:12.681Z,3.70
2023-05-20T01:21:17.437Z,5.80
2023-05-20T01:25:19.667Z,4.95
2023-05-20T01:29:22.488Z,4.97
2023-05-20T01:33:26.524Z,5.43
2023-05-20T01:37:30.057Z,4.78
2023-05-20T01:41:34.522Z,4.13
2023-05-20T01:45:38.201Z,5.65
2023-05-20T01:49:41.753Z,4.90
2023-05-20T01:53:44.144Z,4.68
2023-05-20T01:57:47.232Z,5.63
2023-05-20T02:01:49.408Z,6.22
2023-05-20T02:05:51.608Z,5.55
2023-05-20T02:09:53.644Z,6.57
2023-05-20T02:13:56.435Z,4.60
2023-05-20T02:17:58.692Z,4.88
2023-05-20T02:22:01.001Z,5.15
2023-05-20T02:26:03.078Z,5.63
2023-05-20T02:30:05.730Z,4.18
2023-05-20T02:34:07.866Z,5.45
2023-05-20T02:38:11.479Z,4.45
2023-05-20T02:42:13.546Z,5.28
2023-05-20T02:46:17.160Z,5.65
2023-05-20T02:50:19.292Z,5.28
2023-05-20T02:54:21.734Z,6.25
2023-05-20T02:58:26.531Z,5.82
2023-05-20T03:02:28.980Z,7.18
2023-05-20T03:06:32.099Z,6.78
2023-05-20T03:10:34.199Z,7.85
2023-05-20T03:14:36.064Z,5.30
2023-05-20T03:18:38.201Z,7.03
2023-05-20T03:22:40.573Z,6.72
2023-05-20T03:26:43.737Z,5.60
2023-05-20T03:30:46.162Z,6.70
2023-05-20T03:34:48.464Z,7.45
2023-05-20T03:38:50.449Z,6.32
2023-05-20T03:42:52.708Z,7.50
2023-05-20T03:46:56.481Z,5.55
2023-05-20T03:50:58.791Z,9.77
2023-05-20T03:55:00.926Z,5.65
2023-05-20T03:59:03.085Z,5.32
2023-05-20T04:03:05.900Z,6.40
2023-05-20T04:07:08.040Z,7.72
2023-05-20T04:11:10.533Z,7.50
2023-05-20T04:15:12.782Z,6.38
2023-05-20T04:19:24.359Z,5.90
2023-05-20T04:23:26.687Z,6.47
2023-05-20T04:27:30.037Z,7.65
2023-05-20T04:31:32.949Z,6.50
2023-05-20T04:35:37.666Z,6.18
2023-05-20T04:39:43.678Z,6.68
2023-05-20T04:43:49.945Z,9.05
2023-05-20T04:47:53.346Z,7.55
2023-05-20T04:51:55.794Z,6.45
2023-05-20T04:55:58.051Z,6.90
2023-05-20T05:00:00.627Z,7.47
2023-05-20T05:04:03.633Z,7.10
2023-05-20T05:08:06.941Z,10.80
2023-05-20T05:12:11.746Z,8.60
2023-05-20T05:16:14.272Z,7.70
2023-05-20T05:20:18.163Z,9.68
2023-05-20T05:24:20.880Z,8.07
2023-05-20T05:28:23.581Z,6.40
2023-05-20T05:32:25.937Z,6.32
2023-05-20T05:36:28.201Z,6.35
2023-05-20T05:40:30.187Z,8.00
2023-05-20T05:44:32.419Z,6.70
2023-05-20T05:48:34.666Z,7.40
2023-05-20T05:52:36.969Z,10.30
2023-05-20T05:56:41.413Z,8.50
2023-05-20T06:00:43.531Z,8.45
2023-05-20T06:04:45.821Z,7.72
2023-05-20T06:08:47.863Z,7.30
2023-05-20T06:12:50.549Z,9.45
2023-05-20T06:16:53.218Z,8.05
2023-05-20T06:20:59.876Z,9.63
2023-05-20T06:25:02.509Z,9.02
2023-05-20T06:29:06.032Z,7.50
2023-05-20T06:33:08.562Z,7.90
2023-05-20T06:37:11.529Z,8.73
2023-05-20T06:41:13.688Z,10.40
2023-05-20T06:45:15.921Z,10.82
2023-05-20T06:49:28.554Z,9.00
2023-05-20T06:53:30.685Z,12.43
2023-05-20T06:57:32.869Z,8.25
2023-05-20T07:01:35.044Z,9.63
2023-05-20T07:05:38.131Z,8.05
2023-05-20T07:09:41.162Z,8.88
2023-05-20T07:13:43.361Z,7.75
2023-05-20T07:17:45.477Z,8.52
2023-05-20T07:21:47.595Z,10.20
2023-05-20T07:26:10.229Z,9.20
2023-05-20T07:30:12.707Z,7.90
2023-05-20T07:34:20.034Z,8.10
2023-05-20T07:38:22.413Z,7.25
2023-05-20T07:42:31.374Z,7.65
2023-05-20T07:46:36.205Z,7.30
2023-05-20T07:50:39.707Z,7.60
2023-05-20T07:54:42.139Z,7.80
2023-05-20T07:58:51.911Z,7.60
2023-05-20T08:02:54.307Z,12.27
2023-05-20T08:07:04.496Z,7.53
2023-05-20T08:11:16.540Z,7.63
2023-05-20T08:15:18.892Z,8.18
2023-05-20T08:19:22.303Z,8.13
2023-05-20T08:23:25.347Z,6.70
2023-05-20T08:27:28.094Z,8.30
2023-05-20T08:31:30.325Z,6.65
2023-05-20T08:35:32.578Z,5.60
2023-05-20T08:39:34.788Z,10.23
2023-05-20T08:43:38.217Z,8.23
2023-05-20T08:47:46.116Z,6.95
2023-05-20T08:51:49.211Z,5.43
2023-05-20T08:56:03.869Z,6.35
2023-05-20T09:00:13.051Z,8.63
2023-05-20T09:04:15.205Z,6.70
2023-05-20T09:08:17.492Z,8.55
2023-05-20T09:12:21.316Z,7.50
2023-05-20T09:16:23.274Z,6.25
2023-05-20T09:20:25.864Z,6.20
2023-05-20T09:24:28.132Z,6.93
2023-05-20T09:28:30.229Z,10.48
2023-05-20T09:32:32.507Z,5.65
2023-05-20T09:36:35.302Z,6.18
2023-05-20T09:40:41.081Z,7.53
2023-05-20T09:44:45.336Z,6.85
2023-05-20T09:48:47.756Z,6.15
2023-05-20T09:52:51.263Z,6.63
2023-05-20T09:56:54.780Z,7.20
2023-05-20T10:00:56.897Z,5.53
2023-05-20T10:05:01.315Z,5.72
2023-05-20T10:09:32.383Z,5.88
2023-05-20T10:13:43.707Z,4.50
2023-05-20T10:17:54.427Z,5.85
2023-05-20T10:22:01.832Z,5.15
2023-05-20T10:26:07.234Z,5.78
2023-05-20T10:30:17.550Z,7.10
2023-05-20T10:34:23.020Z,8.43
2023-05-20T10:38:25.569Z,8.32
2023-05-20T10:42:30.664Z,5.45
2023-05-20T10:46:44.167Z,8.80
2023-05-20T10:50:58.146Z,6.28
2023-05-20T10:55:01.745Z,6.75
2023-05-20T10:59:04.630Z,4.85
2023-05-20T11:03:07.512Z,4.82
2023-05-20T11:07:09.956Z,8.13
2023-05-20T11:11:13.485Z,4.30
2023-05-20T11:15:16.629Z,4.28
2023-05-20T11:19:21.515Z,5.80
2023-05-20T11:23:23.860Z,6.05
2023-05-20T11:27:25.929Z,5.22
2023-05-20T11:31:28.142Z,5.32
2023-05-20T11:35:33.276Z,4.78
2023-05-20T11:39:35.448Z,5.15
2023-05-20T11:43:37.406Z,6.13
2023-05-20T11:47:39.965Z,5.75
2023-05-20T11:51:43.882Z,7.45
2023-05-20T11:55:49.537Z,6.22
2023-05-20T11:59:51.461Z,7.57
2023-05-20T12:03:53.916Z,8.50
2023-05-20T12:07:56.634Z,5.80
2023-05-20T12:11:59.405Z,5.72
2023-05-20T12:16:01.448Z,9.07
2023-05-20T12:20:06.764Z,7.78
2023-05-20T12:24:09.354Z,6.63
2023-05-20T12:28:11.435Z,7.55
2023-05-20T12:32:13.621Z,5.65
2023-05-20T12:36:16.464Z,6.22
2023-05-20T12:40:18.532Z,4.43
2023-05-20T12:44:20.605Z,5.35
2023-05-20T12:48:22.661Z,5.43
2023-05-20T12:52:25.417Z,4.30
2023-05-20T12:56:27.563Z,5.00
2023-05-20T13:00:29.864Z,8.10
2023-05-20T13:04:32.062Z,9.55
2023-05-20T13:08:34.234Z,5.85
2023-05-20T13:12:36.576Z,5.75
2023-05-20T13:16:38.887Z,4.35
2023-05-20T13:20:41.462Z,6.10
2023-05-20T13:24:43.536Z,5.53
2023-05-20T13:28:45.712Z,6.53
2023-05-20T13:32:47.913Z,7.93
2023-05-20T13:36:50.076Z,4.55
2023-05-20T13:40:52.298Z,5.90
2023-05-20T13:44:54.214Z,7.72
2023-05-20T13:48:56.134Z,7.97
2023-05-20T13:52:58.120Z,5.32
2023-05-20T13:57:01.255Z,9.40
2023-05-20T14:01:04.884Z,4.00
2023-05-20T14:05:07.755Z,4.63
2023-05-20T14:09:09.984Z,6.03
2023-05-20T14:13:12.125Z,3.75
2023-05-20T14:17:14.199Z,5.53
2023-05-20T14:21:16.120Z,6.25
2023-05-20T14:25:18.216Z,3.85
2023-05-20T14:29:20.516Z,7.93
2023-05-20T14:33:22.606Z,3.55
2023-05-20T14:37:24.671Z,4.45
2023-05-20T14:41:26.784Z,4.15
2023-05-20T14:45:29.037Z,4.55
2023-05-20T14:49:32.815Z,3.75
2023-05-20T14:53:34.807Z,3.75
2023-05-20T14:57:36.908Z,4.05
2023-05-20T15:01:39.152Z,4.35
2023-05-20T15:05:42.238Z,4.43
2023-05-20T15:09:44.427Z,4.47
2023-05-20T15:13:46.610Z,7.60
2023-05-20T15:17:48.649Z,5.38
2023-05-20T15:21:51.860Z,5.45
2023-05-20T15:25:53.962Z,4.55
2023-05-20T15:29:56.129Z,5.90
2023-05-20T15:33:58.581Z,5.93
2023-05-20T15:38:00.861Z,4.65
2023-05-20T15:42:03.355Z,5.60
2023-05-20T15:46:05.573Z,5.07
2023-05-20T15:50:08.735Z,5.57
2023-05-20T15:54:10.824Z,5.40
2023-05-20T15:58:12.935Z,5.47
2023-05-20T16:02:15.107Z,5.18
2023-05-20T16:06:17.245Z,5.45
2023-05-20T16:10:20.735Z,5.57
2023-05-20T16:14:23.152Z,5.22
2023-05-20T16:18:26.250Z,4.68
2023-05-20T16:22:28.628Z,7.65
2023-05-20T16:26:33.586Z,6.30
2023-05-20T16:30:35.990Z,7.07
2023-05-20T16:34:38.170Z,7.90
2023-05-20T16:38:40.389Z,6.45
2023-05-20T16:42:43.970Z,5.85
2023-05-20T16:46:46.135Z,7.97
2023-05-20T16:50:48.128Z,7.57
2023-05-20T16:54:52.039Z,9.80
2023-05-20T16:58:54.209Z,6.10
2023-05-20T17:02:56.202Z,6.82
2023-05-20T17:06:58.427Z,8.30
2023-05-20T17:11:00.872Z,20.02
2023-05-20T17:15:03.003Z,7.78
2023-05-20T17:19:05.163Z,9.52
2023-05-20T17:23:07.158Z,8.77
2023-05-20T17:27:09.301Z,9.73
2023-05-20T17:31:11.962Z,9.25
2023-05-20T17:35:14.007Z,7.50
2023-05-20T17:39:16.941Z,8.00
2023-05-20T17:43:19.604Z,6.60
2023-05-20T17:47:21.659Z,7.78
2023-05-20T17:51:23.820Z,7.80
2023-05-20T17:55:25.929Z,7.63
2023-05-20T17:59:27.963Z,7.75
2023-05-20T18:03:30.236Z,9.45
2023-05-20T18:07:33.401Z,7.55
2023-05-20T18:11:36.120Z,8.30
2023-05-20T18:15:38.312Z,8.35
2023-05-20T18:19:40.577Z,7.00
2023-05-20T18:23:42.620Z,8.65
2023-05-20T18:27:44.695Z,11.65
2023-05-20T18:31:46.712Z,13.18
2023-05-20T18:35:48.818Z,7.97
2023-05-20T18:39:51.274Z,7.50
2023-05-20T18:43:53.374Z,9.27
2023-05-20T18:47:57.664Z,8.23
2023-05-20T18:51:59.865Z,7.13
2023-05-20T18:56:03.149Z,9.93
2023-05-20T19:00:08.461Z,17.80
2023-05-20T19:04:10.695Z,9.43
2023-05-20T19:08:12.776Z,7.35
2023-05-20T19:12:14.709Z,9.57
2023-05-20T19:16:16.818Z,10.13
2023-05-20T19:20:19.040Z,7.53
2023-05-20T19:24:21.117Z,9.90
2023-05-20T19:28:23.299Z,11.10
2023-05-20T19:32:25.497Z,10.32
2023-05-20T19:36:27.490Z,9.10
2023-05-20T19:40:29.621Z,10.10
2023-05-20T19:44:31.661Z,7.28
2023-05-20T19:48:34.374Z,9.02
2023-05-20T19:52:36.864Z,12.25
2023-05-20T19:56:39.308Z,10.95
2023-05-20T20:00:41.370Z,8.18
2023-05-20T20:04:43.563Z,8.25
2023-05-20T20:08:45.843Z,11.05
2023-05-20T20:12:47.815Z,8.48
2023-05-20T20:16:49.803Z,9.75
2023-05-20T20:20:51.920Z,8.23
2023-05-20T20:24:54.016Z,11.68
2023-05-20T20:28:56.190Z,8.05
2023-05-20T20:32:58.543Z,11.32
2023-05-20T20:37:03.248Z,10.38
2023-05-20T20:41:05.285Z,10.23
2023-05-20T20:45:08.038Z,9.77
2023-05-20T20:49:10.477Z,9.98
2023-05-20T20:53:13.421Z,11.52
2023-05-20T20:57:15.530Z,10.40
2023-05-20T21:01:17.954Z,12.45
2023-05-20T21:05:21.533Z,12.90
2023-05-20T21:09:24.185Z,11.25
2023-05-20T21:13:29.899Z,9.90
2023-05-20T21:17:32.068Z,10.38
2023-05-20T21:21:34.126Z,14.32
2023-05-20T21:25:36.703Z,11.52
2023-05-20T21:29:40.308Z,12.00
2023-05-20T21:33:42.606Z,10.88
2023-05-20T21:37:44.579Z,12.32
2023-05-20T21:41:46.757Z,9.82
2023-05-20T21:45:48.852Z,11.48
2023-05-20T21:49:50.897Z,10.20
2023-05-20T21:53:53.068Z,10.27
2023-05-20T21:57:55.051Z,12.18
2023-05-20T22:01:58.099Z,10.32
2023-05-20T22:06:00.948Z,13.05
2023-05-20T22:10:03.706Z,12.85
2023-05-20T22:14:05.634Z,11.98
2023-05-20T22:18:07.986Z,11.35
2023-05-20T22:22:10.419Z,16.20
2023-05-20T22:26:12.594Z,15.23
2023-05-20T22:30:14.594Z,17.42
2023-05-20T22:34:16.745Z,12.30
2023-05-20T22:38:18.821Z,12.35
2023-05-20T22:42:20.864Z,11.88
2023-05-20T22:46:23.779Z,14.32
2023-05-20T22:50:26.453Z,11.27
2023-05-20T22:54:28.602Z,12.18
2023-05-20T22:58:35.793Z,14.95
2023-05-20T23:02:37.874Z,12.20
2023-05-20T23:06:39.877Z,13.32
2023-05-20T23:10:41.951Z,12.88
2023-05-20T23:14:43.894Z,18.90
2023-05-20T23:18:47.521Z,13.80
2023-05-20T23:22:49.673Z,13.68
2023-05-20T23:26:51.671Z,14.30
2023-05-20T23:30:54.556Z,11.90
2023-05-20T23:34:56.596Z,16.52
2023-05-20T23:38:58.622Z,13.48
2023-05-20T23:43:00.776Z,11.82
2023-05-20T23:47:04.021Z,15.27
2023-05-20T23:51:07.028Z,13.25
2023-05-20T23:55:10.382Z,15.15
2023-05-20T23:59:12.596Z,12.68
